sensor_id;sensor_type;location;lat;lon;timestamp;temperature;humidity
68139;DHT22;54940;50.842;4.410;2023-10-08T00:01:50;17.40;99.90
68139;DHT22;54940;50.842;4.410;2023-10-08T00:04:21;17.40;99.90
68139;DHT22;54940;50.842;4.410;2023-10-08T00:06:47;17.30;99.90
68139;DHT22;54940;50.842;4.410;2023-10-08T00:09:13;17.30;99.90
68139;DHT22;54940;50.842;4.410;2023-10-08T00:11:42;17.40;99.90
68139;DHT22;54940;50.842;4.410;2023-10-08T00:14:08;17.30;99.90
68139;DHT22;54940;50.842;4.410;2023-10-08T00:16:36;17.30;99.90
68139;DHT22;54940;50.842;4.410;2023-10-08T00:19:06;17.20;99.90
68139;DHT22;54940;50.842;4.410;2023-10-08T00:21:36;17.20;99.90
68139;DHT22;54940;50.842;4.410;2023-10-08T00:24:04;17.20;99.90
68139;DHT22;54940;50.842;4.410;2023-10-08T00:26:32;17.20;99.90
68139;DHT22;54940;50.842;4.410;2023-10-08T00:29:01;17.20;99.90
68139;DHT22;54940;50.842;4.410;2023-10-08T00:31:47;17.10;99.90
68139;DHT22;54940;50.842;4.410;2023-10-08T00:34:19;17.20;99.90
68139;DHT22;54940;50.842;4.410;2023-10-08T00:36:46;17.10;99.90
68139;DHT22;54940;50.842;4.410;2023-10-08T00:39:15;17.00;99.90
68139;DHT22;54940;50.842;4.410;2023-10-08T00:41:49;17.00;99.90
68139;DHT22;54940;50.842;4.410;2023-10-08T00:44:18;17.10;99.90
68139;DHT22;54940;50.842;4.410;2023-10-08T00:47:04;17.10;99.90
68139;DHT22;54940;50.842;4.410;2023-10-08T00:49:32;17.20;99.90
68139;DHT22;54940;50.842;4.410;2023-10-08T00:52:12;17.10;99.90
68139;DHT22;54940;50.842;4.410;2023-10-08T00:54:39;17.10;99.90
68139;DHT22;54940;50.842;4.410;2023-10-08T00:57:20;17.10;99.90
68139;DHT22;54940;50.842;4.410;2023-10-08T00:59:48;17.10;99.90
68139;DHT22;54940;50.842;4.410;2023-10-08T01:02:21;17.10;99.90
68139;DHT22;54940;50.842;4.410;2023-10-08T01:04:54;17.00;99.90
68139;DHT22;54940;50.842;4.410;2023-10-08T01:07:21;17.10;99.90
68139;DHT22;54940;50.842;4.410;2023-10-08T01:09:47;17.00;99.90
68139;DHT22;54940;50.842;4.410;2023-10-08T01:12:17;17.00;99.90
68139;DHT22;54940;50.842;4.410;2023-10-08T01:15:12;16.90;99.90
68139;DHT22;54940;50.842;4.410;2023-10-08T01:17:57;16.90;99.90
68139;DHT22;54940;50.842;4.410;2023-10-08T01:20:28;17.00;99.90
68139;DHT22;54940;50.842;4.410;2023-10-08T01:23:08;16.90;99.90
68139;DHT22;54940;50.842;4.410;2023-10-08T01:25:43;16.90;99.90
68139;DHT22;54940;50.842;4.410;2023-10-08T01:28:09;16.90;99.90
68139;DHT22;54940;50.842;4.410;2023-10-08T01:30:44;16.80;99.90
68139;DHT22;54940;50.842;4.410;2023-10-08T01:33:14;16.80;99.90
68139;DHT22;54940;50.842;4.410;2023-10-08T01:35:41;16.80;99.90
68139;DHT22;54940;50.842;4.410;2023-10-08T01:38:08;16.80;99.90
68139;DHT22;54940;50.842;4.410;2023-10-08T01:40:39;16.80;99.90
68139;DHT22;54940;50.842;4.410;2023-10-08T01:43:05;16.70;99.90
68139;DHT22;54940;50.842;4.410;2023-10-08T01:45:31;16.70;99.90
68139;DHT22;54940;50.842;4.410;2023-10-08T01:47:57;16.70;99.90
68139;DHT22;54940;50.842;4.410;2023-10-08T01:50:23;16.70;99.90
68139;DHT22;54940;50.842;4.410;2023-10-08T01:52:55;16.60;99.90
68139;DHT22;54940;50.842;4.410;2023-10-08T01:55:21;16.60;99.90
68139;DHT22;54940;50.842;4.410;2023-10-08T01:57:49;16.60;99.90
68139;DHT22;54940;50.842;4.410;2023-10-08T02:00:18;16.60;99.90
68139;DHT22;54940;50.842;4.410;2023-10-08T02:02:51;16.60;99.90
68139;DHT22;54940;50.842;4.410;2023-10-08T02:05:17;16.50;99.90
68139;DHT22;54940;50.842;4.410;2023-10-08T02:07:47;16.50;99.90
68139;DHT22;54940;50.842;4.410;2023-10-08T02:10:13;16.50;99.90
68139;DHT22;54940;50.842;4.410;2023-10-08T02:12:41;16.50;99.90
68139;DHT22;54940;50.842;4.410;2023-10-08T02:15:08;16.40;99.90
68139;DHT22;54940;50.842;4.410;2023-10-08T02:17:34;16.40;99.90
68139;DHT22;54940;50.842;4.410;2023-10-08T02:20:02;16.50;99.90
68139;DHT22;54940;50.842;4.410;2023-10-08T02:22:31;16.50;99.90
68139;DHT22;54940;50.842;4.410;2023-10-08T02:24:58;16.40;99.90
68139;DHT22;54940;50.842;4.410;2023-10-08T02:27:27;16.50;99.90
68139;DHT22;54940;50.842;4.410;2023-10-08T02:29:53;16.50;99.90
68139;DHT22;54940;50.842;4.410;2023-10-08T02:32:20;16.50;99.90
68139;DHT22;54940;50.842;4.410;2023-10-08T02:34:48;16.50;99.90
68139;DHT22;54940;50.842;4.410;2023-10-08T02:37:14;16.30;99.90
68139;DHT22;54940;50.842;4.410;2023-10-08T02:39:40;16.30;99.90
68139;DHT22;54940;50.842;4.410;2023-10-08T02:42:06;16.30;99.90
68139;DHT22;54940;50.842;4.410;2023-10-08T02:44:36;16.30;99.90
68139;DHT22;54940;50.842;4.410;2023-10-08T02:47:10;16.40;99.90
68139;DHT22;54940;50.842;4.410;2023-10-08T02:49:48;16.40;99.90
68139;DHT22;54940;50.842;4.410;2023-10-08T02:52:18;16.40;99.90
68139;DHT22;54940;50.842;4.410;2023-10-08T02:54:43;16.30;99.90
68139;DHT22;54940;50.842;4.410;2023-10-08T02:57:10;16.30;99.90
68139;DHT22;54940;50.842;4.410;2023-10-08T02:59:40;16.30;99.90
68139;DHT22;54940;50.842;4.410;2023-10-08T03:02:11;16.30;99.90
68139;DHT22;54940;50.842;4.410;2023-10-08T03:04:48;16.30;99.90
68139;DHT22;54940;50.842;4.410;2023-10-08T03:07:16;16.40;99.90
68139;DHT22;54940;50.842;4.410;2023-10-08T03:10:09;16.30;99.90
68139;DHT22;54940;50.842;4.410;2023-10-08T03:12:45;16.30;99.90
68139;DHT22;54940;50.842;4.410;2023-10-08T03:15:15;16.30;99.90
68139;DHT22;54940;50.842;4.410;2023-10-08T03:17:55;16.30;99.90
68139;DHT22;54940;50.842;4.410;2023-10-08T03:20:23;16.30;99.90
68139;DHT22;54940;50.842;4.410;2023-10-08T03:23:08;16.30;99.90
68139;DHT22;54940;50.842;4.410;2023-10-08T03:25:52;16.30;99.90
68139;DHT22;54940;50.842;4.410;2023-10-08T03:28:37;16.30;99.90
68139;DHT22;54940;50.842;4.410;2023-10-08T03:31:04;16.40;99.90
68139;DHT22;54940;50.842;4.410;2023-10-08T03:33:40;16.30;99.90
68139;DHT22;54940;50.842;4.410;2023-10-08T03:36:07;16.30;99.90
68139;DHT22;54940;50.842;4.410;2023-10-08T03:38:40;16.30;99.90
68139;DHT22;54940;50.842;4.410;2023-10-08T03:41:31;16.30;99.90
68139;DHT22;54940;50.842;4.410;2023-10-08T03:43:58;16.30;99.90
68139;DHT22;54940;50.842;4.410;2023-10-08T03:46:38;16.30;99.90
68139;DHT22;54940;50.842;4.410;2023-10-08T03:49:15;16.30;99.90
68139;DHT22;54940;50.842;4.410;2023-10-08T03:51:47;16.30;99.90
68139;DHT22;54940;50.842;4.410;2023-10-08T03:54:20;16.20;99.90
68139;DHT22;54940;50.842;4.410;2023-10-08T03:57:01;16.20;99.90
68139;DHT22;54940;50.842;4.410;2023-10-08T03:59:29;16.10;99.90
68139;DHT22;54940;50.842;4.410;2023-10-08T04:01:55;16.10;99.90
68139;DHT22;54940;50.842;4.410;2023-10-08T04:04:25;16.10;99.90
68139;DHT22;54940;50.842;4.410;2023-10-08T04:07:21;16.10;99.90
68139;DHT22;54940;50.842;4.410;2023-10-08T04:10:09;16.10;99.90
68139;DHT22;54940;50.842;4.410;2023-10-08T04:12:36;16.10;99.90
68139;DHT22;54940;50.842;4.410;2023-10-08T04:15:08;16.10;99.90
68139;DHT22;54940;50.842;4.410;2023-10-08T04:17:35;16.10;99.90
68139;DHT22;54940;50.842;4.410;2023-10-08T04:20:09;16.00;99.90
68139;DHT22;54940;50.842;4.410;2023-10-08T04:22:55;16.00;99.90
68139;DHT22;54940;50.842;4.410;2023-10-08T04:25:21;16.00;99.90
68139;DHT22;54940;50.842;4.410;2023-10-08T04:27:47;16.00;99.90
68139;DHT22;54940;50.842;4.410;2023-10-08T04:30:16;16.10;99.90
68139;DHT22;54940;50.842;4.410;2023-10-08T04:32:46;16.00;99.90
68139;DHT22;54940;50.842;4.410;2023-10-08T04:35:12;16.10;99.90
68139;DHT22;54940;50.842;4.410;2023-10-08T04:37:40;16.10;99.90
68139;DHT22;54940;50.842;4.410;2023-10-08T04:40:07;16.10;99.90
68139;DHT22;54940;50.842;4.410;2023-10-08T04:42:42;16.10;99.90
68139;DHT22;54940;50.842;4.410;2023-10-08T04:45:11;16.00;99.90
68139;DHT22;54940;50.842;4.410;2023-10-08T04:47:40;16.10;99.90
68139;DHT22;54940;50.842;4.410;2023-10-08T04:50:10;16.00;99.90
68139;DHT22;54940;50.842;4.410;2023-10-08T04:52:41;16.10;99.90
68139;DHT22;54940;50.842;4.410;2023-10-08T04:55:25;16.10;99.90
68139;DHT22;54940;50.842;4.410;2023-10-08T04:57:55;16.00;99.90
68139;DHT22;54940;50.842;4.410;2023-10-08T05:00:21;16.10;99.90
68139;DHT22;54940;50.842;4.410;2023-10-08T05:03:06;16.00;99.90
68139;DHT22;54940;50.842;4.410;2023-10-08T05:05:39;16.10;99.90
68139;DHT22;54940;50.842;4.410;2023-10-08T05:08:20;16.00;99.90
68139;DHT22;54940;50.842;4.410;2023-10-08T05:10:58;16.00;99.90
68139;DHT22;54940;50.842;4.410;2023-10-08T05:13:40;16.00;99.90
68139;DHT22;54940;50.842;4.410;2023-10-08T05:16:23;16.10;99.90
68139;DHT22;54940;50.842;4.410;2023-10-08T05:19:07;16.00;99.90
68139;DHT22;54940;50.842;4.410;2023-10-08T05:21:50;16.00;99.90
68139;DHT22;54940;50.842;4.410;2023-10-08T05:24:31;15.90;99.90
68139;DHT22;54940;50.842;4.410;2023-10-08T05:27:04;15.90;99.90
68139;DHT22;54940;50.842;4.410;2023-10-08T05:29:48;15.90;99.90
68139;DHT22;54940;50.842;4.410;2023-10-08T05:32:32;15.90;99.90
68139;DHT22;54940;50.842;4.410;2023-10-08T05:35:17;15.90;99.90
68139;DHT22;54940;50.842;4.410;2023-10-08T05:38:01;15.90;99.90
68139;DHT22;54940;50.842;4.410;2023-10-08T05:40:41;16.00;99.90
68139;DHT22;54940;50.842;4.410;2023-10-08T05:43:40;16.00;99.90
68139;DHT22;54940;50.842;4.410;2023-10-08T05:46:07;16.00;99.90
68139;DHT22;54940;50.842;4.410;2023-10-08T05:51:40;16.00;99.90
68139;DHT22;54940;50.842;4.410;2023-10-08T05:54:22;16.00;99.90
68139;DHT22;54940;50.842;4.410;2023-10-08T05:57:07;16.00;99.90
68139;DHT22;54940;50.842;4.410;2023-10-08T05:59:37;16.00;99.90
68139;DHT22;54940;50.842;4.410;2023-10-08T06:02:28;16.00;99.90
68139;DHT22;54940;50.842;4.410;2023-10-08T06:05:09;16.00;99.90
68139;DHT22;54940;50.842;4.410;2023-10-08T06:07:45;16.00;99.90
68139;DHT22;54940;50.842;4.410;2023-10-08T06:10:30;16.00;99.90
68139;DHT22;54940;50.842;4.410;2023-10-08T06:13:14;16.10;99.90
68139;DHT22;54940;50.842;4.410;2023-10-08T06:16:08;16.10;99.90
68139;DHT22;54940;50.842;4.410;2023-10-08T06:18:34;16.10;99.90
68139;DHT22;54940;50.842;4.410;2023-10-08T06:21:06;16.10;99.90
68139;DHT22;54940;50.842;4.410;2023-10-08T06:23:39;16.00;99.90
68139;DHT22;54940;50.842;4.410;2023-10-08T06:26:05;15.90;99.90
68139;DHT22;54940;50.842;4.410;2023-10-08T06:28:40;16.00;99.90
68139;DHT22;54940;50.842;4.410;2023-10-08T06:31:07;16.00;99.90
68139;DHT22;54940;50.842;4.410;2023-10-08T06:33:44;16.00;99.90
68139;DHT22;54940;50.842;4.410;2023-10-08T06:36:10;16.10;99.90
68139;DHT22;54940;50.842;4.410;2023-10-08T06:38:37;16.00;99.90
68139;DHT22;54940;50.842;4.410;2023-10-08T06:41:08;16.10;99.90
68139;DHT22;54940;50.842;4.410;2023-10-08T06:43:44;16.10;99.90
68139;DHT22;54940;50.842;4.410;2023-10-08T06:46:16;16.30;99.90
68139;DHT22;54940;50.842;4.410;2023-10-08T06:48:45;16.30;99.90
68139;DHT22;54940;50.842;4.410;2023-10-08T06:51:12;16.30;99.90
68139;DHT22;54940;50.842;4.410;2023-10-08T06:53:46;16.40;99.90
68139;DHT22;54940;50.842;4.410;2023-10-08T06:56:16;16.50;99.90
68139;DHT22;54940;50.842;4.410;2023-10-08T06:58:43;16.60;99.90
68139;DHT22;54940;50.842;4.410;2023-10-08T07:01:19;16.70;99.90
68139;DHT22;54940;50.842;4.410;2023-10-08T07:03:56;16.70;99.90
68139;DHT22;54940;50.842;4.410;2023-10-08T07:06:29;16.70;99.90
68139;DHT22;54940;50.842;4.410;2023-10-08T07:09:00;16.80;99.90
68139;DHT22;54940;50.842;4.410;2023-10-08T07:11:30;16.80;99.90
68139;DHT22;54940;50.842;4.410;2023-10-08T07:14:01;16.80;99.90
68139;DHT22;54940;50.842;4.410;2023-10-08T07:16:26;16.70;99.90
68139;DHT22;54940;50.842;4.410;2023-10-08T07:18:53;16.70;99.90
68139;DHT22;54940;50.842;4.410;2023-10-08T07:21:26;16.80;99.90
68139;DHT22;54940;50.842;4.410;2023-10-08T07:23:57;17.00;99.90
68139;DHT22;54940;50.842;4.410;2023-10-08T07:26:26;17.10;99.90
68139;DHT22;54940;50.842;4.410;2023-10-08T07:29:02;17.10;99.90
68139;DHT22;54940;50.842;4.410;2023-10-08T07:31:33;17.10;99.90
68139;DHT22;54940;50.842;4.410;2023-10-08T07:34:00;17.10;99.90
68139;DHT22;54940;50.842;4.410;2023-10-08T07:36:44;17.10;99.90
68139;DHT22;54940;50.842;4.410;2023-10-08T07:39:10;17.10;99.90
68139;DHT22;54940;50.842;4.410;2023-10-08T07:41:51;17.10;99.90
68139;DHT22;54940;50.842;4.410;2023-10-08T07:44:17;17.30;99.90
68139;DHT22;54940;50.842;4.410;2023-10-08T07:46:50;17.30;99.90
68139;DHT22;54940;50.842;4.410;2023-10-08T07:49:16;17.40;99.90
68139;DHT22;54940;50.842;4.410;2023-10-08T07:51:44;17.40;99.90
68139;DHT22;54940;50.842;4.410;2023-10-08T07:54:26;17.50;99.90
68139;DHT22;54940;50.842;4.410;2023-10-08T07:56:57;17.60;99.90
68139;DHT22;54940;50.842;4.410;2023-10-08T07:59:38;17.70;99.90
68139;DHT22;54940;50.842;4.410;2023-10-08T08:02:06;17.90;99.90
68139;DHT22;54940;50.842;4.410;2023-10-08T08:04:41;18.00;99.90
68139;DHT22;54940;50.842;4.410;2023-10-08T08:07:09;18.10;99.90
68139;DHT22;54940;50.842;4.410;2023-10-08T08:09:49;18.20;99.90
68139;DHT22;54940;50.842;4.410;2023-10-08T08:12:24;18.10;99.90
68139;DHT22;54940;50.842;4.410;2023-10-08T08:14:54;18.10;99.90
68139;DHT22;54940;50.842;4.410;2023-10-08T08:17:21;18.00;99.90
68139;DHT22;54940;50.842;4.410;2023-10-08T08:19:50;18.00;99.90
68139;DHT22;54940;50.842;4.410;2023-10-08T08:22:17;18.00;99.90
68139;DHT22;54940;50.842;4.410;2023-10-08T08:24:57;18.00;99.90
68139;DHT22;54940;50.842;4.410;2023-10-08T08:27:31;18.10;99.90
68139;DHT22;54940;50.842;4.410;2023-10-08T08:29:58;18.20;99.90
68139;DHT22;54940;50.842;4.410;2023-10-08T08:32:39;18.20;99.90
68139;DHT22;54940;50.842;4.410;2023-10-08T08:35:08;18.20;99.90
68139;DHT22;54940;50.842;4.410;2023-10-08T08:37:37;18.20;99.90
68139;DHT22;54940;50.842;4.410;2023-10-08T08:40:10;18.20;99.90
68139;DHT22;54940;50.842;4.410;2023-10-08T08:42:45;18.10;99.90
68139;DHT22;54940;50.842;4.410;2023-10-08T08:45:24;18.20;99.90
68139;DHT22;54940;50.842;4.410;2023-10-08T08:47:50;18.20;99.90
68139;DHT22;54940;50.842;4.410;2023-10-08T08:50:17;18.20;99.90
68139;DHT22;54940;50.842;4.410;2023-10-08T08:52:44;18.30;99.90
68139;DHT22;54940;50.842;4.410;2023-10-08T08:55:11;18.40;99.90
68139;DHT22;54940;50.842;4.410;2023-10-08T08:57:59;18.40;99.90
68139;DHT22;54940;50.842;4.410;2023-10-08T09:00:28;18.50;99.90
68139;DHT22;54940;50.842;4.410;2023-10-08T09:02:55;18.50;99.90
68139;DHT22;54940;50.842;4.410;2023-10-08T09:05:21;18.60;99.90
68139;DHT22;54940;50.842;4.410;2023-10-08T09:08:05;18.80;99.90
68139;DHT22;54940;50.842;4.410;2023-10-08T09:10:37;18.90;99.90
68139;DHT22;54940;50.842;4.410;2023-10-08T09:13:07;19.10;99.90
68139;DHT22;54940;50.842;4.410;2023-10-08T09:15:35;19.20;99.90
68139;DHT22;54940;50.842;4.410;2023-10-08T09:18:02;19.30;99.90
68139;DHT22;54940;50.842;4.410;2023-10-08T09:20:30;19.20;99.90
68139;DHT22;54940;50.842;4.410;2023-10-08T09:23:10;19.30;99.90
68139;DHT22;54940;50.842;4.410;2023-10-08T09:25:43;19.30;99.90
68139;DHT22;54940;50.842;4.410;2023-10-08T09:28:09;19.30;99.90
68139;DHT22;54940;50.842;4.410;2023-10-08T09:30:39;19.20;99.90
68139;DHT22;54940;50.842;4.410;2023-10-08T09:33:09;19.20;99.90
68139;DHT22;54940;50.842;4.410;2023-10-08T09:35:36;19.30;99.90
68139;DHT22;54940;50.842;4.410;2023-10-08T09:38:08;19.20;99.90
68139;DHT22;54940;50.842;4.410;2023-10-08T09:40:36;19.30;99.90
68139;DHT22;54940;50.842;4.410;2023-10-08T09:43:04;19.30;99.90
68139;DHT22;54940;50.842;4.410;2023-10-08T09:45:30;19.30;99.90
68139;DHT22;54940;50.842;4.410;2023-10-08T09:47:56;19.40;99.90
68139;DHT22;54940;50.842;4.410;2023-10-08T09:50:32;19.30;99.90
68139;DHT22;54940;50.842;4.410;2023-10-08T09:53:12;19.40;99.90
68139;DHT22;54940;50.842;4.410;2023-10-08T09:55:53;19.60;99.90
68139;DHT22;54940;50.842;4.410;2023-10-08T09:58:21;19.60;99.90
68139;DHT22;54940;50.842;4.410;2023-10-08T10:00:49;19.70;99.90
68139;DHT22;54940;50.842;4.410;2023-10-08T10:03:15;19.70;99.90
68139;DHT22;54940;50.842;4.410;2023-10-08T10:05:44;19.80;99.90
68139;DHT22;54940;50.842;4.410;2023-10-08T10:08:10;19.90;99.90
68139;DHT22;54940;50.842;4.410;2023-10-08T10:10:39;20.10;99.90
68139;DHT22;54940;50.842;4.410;2023-10-08T10:13:06;20.30;99.90
68139;DHT22;54940;50.842;4.410;2023-10-08T10:15:36;20.50;99.90
68139;DHT22;54940;50.842;4.410;2023-10-08T10:18:13;20.70;99.90
68139;DHT22;54940;50.842;4.410;2023-10-08T10:20:45;20.80;99.90
68139;DHT22;54940;50.842;4.410;2023-10-08T10:23:37;21.00;99.90
68139;DHT22;54940;50.842;4.410;2023-10-08T10:26:04;21.10;99.90
68139;DHT22;54940;50.842;4.410;2023-10-08T10:28:35;21.10;99.90
68139;DHT22;54940;50.842;4.410;2023-10-08T10:31:03;21.40;99.90
68139;DHT22;54940;50.842;4.410;2023-10-08T10:33:32;21.50;99.90
68139;DHT22;54940;50.842;4.410;2023-10-08T10:36:06;21.60;99.90
68139;DHT22;54940;50.842;4.410;2023-10-08T10:38:34;21.90;99.90
68139;DHT22;54940;50.842;4.410;2023-10-08T10:41:03;22.00;99.90
68139;DHT22;54940;50.842;4.410;2023-10-08T10:43:34;22.20;99.90
68139;DHT22;54940;50.842;4.410;2023-10-08T10:46:01;22.20;99.90
68139;DHT22;54940;50.842;4.410;2023-10-08T10:48:45;22.20;99.90
68139;DHT22;54940;50.842;4.410;2023-10-08T10:51:30;22.30;99.90
68139;DHT22;54940;50.842;4.410;2023-10-08T10:53:57;22.50;99.90
68139;DHT22;54940;50.842;4.410;2023-10-08T10:56:28;22.80;99.90
68139;DHT22;54940;50.842;4.410;2023-10-08T10:59:02;23.10;99.90
68139;DHT22;54940;50.842;4.410;2023-10-08T11:01:41;23.10;99.90
68139;DHT22;54940;50.842;4.410;2023-10-08T11:04:18;23.00;99.90
68139;DHT22;54940;50.842;4.410;2023-10-08T11:06:47;22.90;99.90
68139;DHT22;54940;50.842;4.410;2023-10-08T11:09:16;23.00;99.90
68139;DHT22;54940;50.842;4.410;2023-10-08T11:11:48;23.20;99.90
68139;DHT22;54940;50.842;4.410;2023-10-08T11:14:20;23.30;99.90
68139;DHT22;54940;50.842;4.410;2023-10-08T11:16:47;23.40;99.90
68139;DHT22;54940;50.842;4.410;2023-10-08T11:19:19;23.80;99.90
68139;DHT22;54940;50.842;4.410;2023-10-08T11:21:52;24.00;99.90
68139;DHT22;54940;50.842;4.410;2023-10-08T11:24:31;24.10;99.90
68139;DHT22;54940;50.842;4.410;2023-10-08T11:27:00;24.30;99.90
68139;DHT22;54940;50.842;4.410;2023-10-08T11:29:46;24.50;99.90
68139;DHT22;54940;50.842;4.410;2023-10-08T11:32:15;24.50;99.90
68139;DHT22;54940;50.842;4.410;2023-10-08T11:34:46;24.50;99.90
68139;DHT22;54940;50.842;4.410;2023-10-08T11:37:29;24.50;99.90
68139;DHT22;54940;50.842;4.410;2023-10-08T11:39:56;24.50;99.90
68139;DHT22;54940;50.842;4.410;2023-10-08T11:42:24;24.60;99.90
68139;DHT22;54940;50.842;4.410;2023-10-08T11:45:11;24.90;99.90
68139;DHT22;54940;50.842;4.410;2023-10-08T11:47:46;25.10;99.90
68139;DHT22;54940;50.842;4.410;2023-10-08T11:50:15;25.00;99.90
68139;DHT22;54940;50.842;4.410;2023-10-08T11:52:45;25.10;99.90
68139;DHT22;54940;50.842;4.410;2023-10-08T11:55:12;25.10;99.90
68139;DHT22;54940;50.842;4.410;2023-10-08T11:57:49;25.20;99.90
68139;DHT22;54940;50.842;4.410;2023-10-08T12:00:16;25.20;99.90
68139;DHT22;54940;50.842;4.410;2023-10-08T12:02:46;25.20;99.90
68139;DHT22;54940;50.842;4.410;2023-10-08T12:05:12;25.00;99.90
68139;DHT22;54940;50.842;4.410;2023-10-08T12:07:46;24.90;99.90
68139;DHT22;54940;50.842;4.410;2023-10-08T12:10:14;25.00;99.90
68139;DHT22;54940;50.842;4.410;2023-10-08T12:12:43;24.90;99.90
68139;DHT22;54940;50.842;4.410;2023-10-08T12:15:11;25.00;99.90
68139;DHT22;54940;50.842;4.410;2023-10-08T12:17:44;25.10;99.90
68139;DHT22;54940;50.842;4.410;2023-10-08T12:20:09;25.10;99.90
68139;DHT22;54940;50.842;4.410;2023-10-08T12:22:51;24.90;99.90
68139;DHT22;54940;50.842;4.410;2023-10-08T12:25:17;24.90;99.90
68139;DHT22;54940;50.842;4.410;2023-10-08T12:27:42;24.90;99.90
68139;DHT22;54940;50.842;4.410;2023-10-08T12:30:09;24.90;99.90
68139;DHT22;54940;50.842;4.410;2023-10-08T12:32:39;24.90;99.90
68139;DHT22;54940;50.842;4.410;2023-10-08T12:35:08;24.80;99.90
68139;DHT22;54940;50.842;4.410;2023-10-08T12:37:40;24.90;99.90
68139;DHT22;54940;50.842;4.410;2023-10-08T12:40:07;24.90;99.90
68139;DHT22;54940;50.842;4.410;2023-10-08T12:42:51;24.90;99.90
68139;DHT22;54940;50.842;4.410;2023-10-08T12:45:17;24.80;99.90
68139;DHT22;54940;50.842;4.410;2023-10-08T12:47:52;24.70;99.90
68139;DHT22;54940;50.842;4.410;2023-10-08T12:50:19;24.70;99.90
68139;DHT22;54940;50.842;4.410;2023-10-08T12:53:04;24.70;99.90
68139;DHT22;54940;50.842;4.410;2023-10-08T12:55:30;24.60;99.90
68139;DHT22;54940;50.842;4.410;2023-10-08T12:57:56;24.50;99.90
68139;DHT22;54940;50.842;4.410;2023-10-08T13:00:31;24.40;99.90
68139;DHT22;54940;50.842;4.410;2023-10-08T13:02:59;24.50;99.90
68139;DHT22;54940;50.842;4.410;2023-10-08T13:05:31;24.60;99.90
68139;DHT22;54940;50.842;4.410;2023-10-08T13:07:59;24.60;99.90
68139;DHT22;54940;50.842;4.410;2023-10-08T13:10:35;24.70;99.90
68139;DHT22;54940;50.842;4.410;2023-10-08T13:13:00;24.50;99.90
68139;DHT22;54940;50.842;4.410;2023-10-08T13:15:26;24.50;99.90
68139;DHT22;54940;50.842;4.410;2023-10-08T13:17:52;24.40;99.90
68139;DHT22;54940;50.842;4.410;2023-10-08T13:20:20;24.30;99.90
68139;DHT22;54940;50.842;4.410;2023-10-08T13:22:46;24.30;99.90
68139;DHT22;54940;50.842;4.410;2023-10-08T13:25:12;24.30;99.90
68139;DHT22;54940;50.842;4.410;2023-10-08T13:27:39;24.10;99.90
68139;DHT22;54940;50.842;4.410;2023-10-08T13:30:08;24.10;99.90
68139;DHT22;54940;50.842;4.410;2023-10-08T13:32:36;24.10;99.90
68139;DHT22;54940;50.842;4.410;2023-10-08T13:35:05;24.00;99.90
68139;DHT22;54940;50.842;4.410;2023-10-08T13:37:34;24.10;99.90
68139;DHT22;54940;50.842;4.410;2023-10-08T13:40:01;24.10;99.90
68139;DHT22;54940;50.842;4.410;2023-10-08T13:42:26;24.00;99.90
68139;DHT22;54940;50.842;4.410;2023-10-08T13:44:53;24.00;99.90
68139;DHT22;54940;50.842;4.410;2023-10-08T13:47:21;23.90;99.90
68139;DHT22;54940;50.842;4.410;2023-10-08T13:49:51;23.90;99.90
68139;DHT22;54940;50.842;4.410;2023-10-08T13:52:20;23.70;99.90
68139;DHT22;54940;50.842;4.410;2023-10-08T13:54:48;23.70;99.90
68139;DHT22;54940;50.842;4.410;2023-10-08T13:57:19;23.50;99.90
68139;DHT22;54940;50.842;4.410;2023-10-08T13:59:45;23.60;99.90
68139;DHT22;54940;50.842;4.410;2023-10-08T14:02:12;23.60;99.90
68139;DHT22;54940;50.842;4.410;2023-10-08T14:04:42;23.60;99.90
68139;DHT22;54940;50.842;4.410;2023-10-08T14:07:09;23.60;99.90
68139;DHT22;54940;50.842;4.410;2023-10-08T14:09:37;23.60;99.90
68139;DHT22;54940;50.842;4.410;2023-10-08T14:12:06;23.60;99.90
68139;DHT22;54940;50.842;4.410;2023-10-08T14:14:33;23.50;99.90
68139;DHT22;54940;50.842;4.410;2023-10-08T14:17:00;23.40;99.90
68139;DHT22;54940;50.842;4.410;2023-10-08T14:19:32;23.30;99.90
68139;DHT22;54940;50.842;4.410;2023-10-08T14:22:17;23.40;99.90
68139;DHT22;54940;50.842;4.410;2023-10-08T14:24:47;23.40;99.90
68139;DHT22;54940;50.842;4.410;2023-10-08T14:27:27;23.40;99.90
68139;DHT22;54940;50.842;4.410;2023-10-08T14:29:57;23.50;99.90
68139;DHT22;54940;50.842;4.410;2023-10-08T14:32:27;23.60;99.90
68139;DHT22;54940;50.842;4.410;2023-10-08T14:34:53;23.60;99.90
68139;DHT22;54940;50.842;4.410;2023-10-08T14:37:22;23.70;99.90
68139;DHT22;54940;50.842;4.410;2023-10-08T14:40:06;23.80;99.90
68139;DHT22;54940;50.842;4.410;2023-10-08T14:42:51;24.00;99.90
68139;DHT22;54940;50.842;4.410;2023-10-08T14:45:29;23.90;99.90
68139;DHT22;54940;50.842;4.410;2023-10-08T14:48:01;23.90;99.90
68139;DHT22;54940;50.842;4.410;2023-10-08T14:50:27;23.90;99.90
68139;DHT22;54940;50.842;4.410;2023-10-08T14:52:56;23.80;99.90
68139;DHT22;54940;50.842;4.410;2023-10-08T14:55:22;23.70;99.90
68139;DHT22;54940;50.842;4.410;2023-10-08T14:57:51;23.60;99.90
68139;DHT22;54940;50.842;4.410;2023-10-08T15:00:18;23.50;99.90
68139;DHT22;54940;50.842;4.410;2023-10-08T15:02:51;23.50;99.90
68139;DHT22;54940;50.842;4.410;2023-10-08T15:05:19;23.40;99.90
68139;DHT22;54940;50.842;4.410;2023-10-08T15:07:45;23.40;99.90
68139;DHT22;54940;50.842;4.410;2023-10-08T15:10:11;23.40;99.90
68139;DHT22;54940;50.842;4.410;2023-10-08T15:12:39;23.40;99.90
68139;DHT22;54940;50.842;4.410;2023-10-08T15:15:07;23.50;99.90
68139;DHT22;54940;50.842;4.410;2023-10-08T15:20:06;23.40;99.90
68139;DHT22;54940;50.842;4.410;2023-10-08T15:22:32;23.40;99.90
68139;DHT22;54940;50.842;4.410;2023-10-08T15:24:58;23.40;99.90
68139;DHT22;54940;50.842;4.410;2023-10-08T15:27:23;23.30;99.90
68139;DHT22;54940;50.842;4.410;2023-10-08T15:29:49;23.20;99.90
68139;DHT22;54940;50.842;4.410;2023-10-08T15:32:14;23.20;99.90
68139;DHT22;54940;50.842;4.410;2023-10-08T15:34:40;23.10;99.90
68139;DHT22;54940;50.842;4.410;2023-10-08T15:37:07;23.00;99.90
68139;DHT22;54940;50.842;4.410;2023-10-08T15:39:32;22.90;99.90
68139;DHT22;54940;50.842;4.410;2023-10-08T15:41:58;22.90;99.90
68139;DHT22;54940;50.842;4.410;2023-10-08T15:44:24;23.00;99.90
68139;DHT22;54940;50.842;4.410;2023-10-08T15:46:50;23.00;99.90
68139;DHT22;54940;50.842;4.410;2023-10-08T15:49:17;23.00;99.90
68139;DHT22;54940;50.842;4.410;2023-10-08T15:51:45;23.00;99.90
68139;DHT22;54940;50.842;4.410;2023-10-08T15:54:12;22.90;99.90
68139;DHT22;54940;50.842;4.410;2023-10-08T15:56:38;22.90;99.90
68139;DHT22;54940;50.842;4.410;2023-10-08T15:59:03;22.90;99.90
68139;DHT22;54940;50.842;4.410;2023-10-08T16:01:29;22.90;99.90
68139;DHT22;54940;50.842;4.410;2023-10-08T16:03:57;22.80;99.90